sensor_id;sensor_type;location;lat;lon;timestamp;P1;durP1;ratioP1;P2;durP2;ratioP2
9729;SDS011;4904;49.152;11.004;2024-01-11T00:00:04;26.33;;;16.10;;
9729;SDS011;4904;49.152;11.004;2024-01-11T00:02:31;25.50;;;15.50;;
9729;SDS011;4904;49.152;11.004;2024-01-11T00:04:58;24.63;;;15.77;;
9729;SDS011;4904;49.152;11.004;2024-01-11T00:07:27;24.83;;;15.47;;
9729;SDS011;4904;49.152;11.004;2024-01-11T00:09:54;28.13;;;15.80;;
9729;SDS011;4904;49.152;11.004;2024-01-11T00:12:21;24.07;;;16.53;;
9729;SDS011;4904;49.152;11.004;2024-01-11T00:14:48;25.47;;;16.50;;
9729;SDS011;4904;49.152;11.004;2024-01-11T00:17:14;25.97;;;15.73;;
9729;SDS011;4904;49.152;11.004;2024-01-11T00:19:41;25.17;;;15.83;;
9729;SDS011;4904;49.152;11.004;2024-01-11T00:22:08;26.93;;;15.80;;
9729;SDS011;4904;49.152;11.004;2024-01-11T00:24:36;25.93;;;15.80;;
9729;SDS011;4904;49.152;11.004;2024-01-11T00:27:04;25.40;;;15.63;;
9729;SDS011;4904;49.152;11.004;2024-01-11T00:29:31;28.93;;;16.63;;
9729;SDS011;4904;49.152;11.004;2024-01-11T00:31:58;27.40;;;16.17;;
9729;SDS011;4904;49.152;11.004;2024-01-11T00:34:25;25.17;;;15.73;;
9729;SDS011;4904;49.152;11.004;2024-01-11T00:36:51;25.77;;;16.33;;
9729;SDS011;4904;49.152;11.004;2024-01-11T00:39:18;24.93;;;15.53;;
9729;SDS011;4904;49.152;11.004;2024-01-11T00:41:46;25.17;;;16.03;;
9729;SDS011;4904;49.152;11.004;2024-01-11T00:44:13;26.40;;;15.40;;
9729;SDS011;4904;49.152;11.004;2024-01-11T00:46:40;24.97;;;15.03;;
9729;SDS011;4904;49.152;11.004;2024-01-11T00:49:07;26.83;;;16.50;;
9729;SDS011;4904;49.152;11.004;2024-01-11T00:51:34;25.47;;;15.80;;
9729;SDS011;4904;49.152;11.004;2024-01-11T00:54:01;23.97;;;15.37;;
9729;SDS011;4904;49.152;11.004;2024-01-11T00:56:28;24.93;;;15.57;;
9729;SDS011;4904;49.152;11.004;2024-01-11T00:58:56;26.20;;;15.37;;
9729;SDS011;4904;49.152;11.004;2024-01-11T01:01:23;26.63;;;16.40;;
9729;SDS011;4904;49.152;11.004;2024-01-11T01:03:51;23.87;;;14.80;;
9729;SDS011;4904;49.152;11.004;2024-01-11T01:06:18;25.17;;;14.00;;
9729;SDS011;4904;49.152;11.004;2024-01-11T01:08:45;21.37;;;14.87;;
9729;SDS011;4904;49.152;11.004;2024-01-11T01:11:12;22.47;;;15.27;;
9729;SDS011;4904;49.152;11.004;2024-01-11T01:13:38;23.87;;;14.83;;
9729;SDS011;4904;49.152;11.004;2024-01-11T01:16:07;23.63;;;13.73;;
9729;SDS011;4904;49.152;11.004;2024-01-11T01:18:33;22.70;;;14.23;;
9729;SDS011;4904;49.152;11.004;2024-01-11T01:21:00;23.03;;;14.70;;
9729;SDS011;4904;49.152;11.004;2024-01-11T01:23:27;24.67;;;15.00;;
9729;SDS011;4904;49.152;11.004;2024-01-11T01:25:54;23.67;;;15.03;;
9729;SDS011;4904;49.152;11.004;2024-01-11T01:28:21;24.10;;;14.33;;
9729;SDS011;4904;49.152;11.004;2024-01-11T01:30:48;23.77;;;14.93;;
9729;SDS011;4904;49.152;11.004;2024-01-11T01:33:16;24.20;;;14.77;;
9729;SDS011;4904;49.152;11.004;2024-01-11T01:35:43;21.53;;;14.87;;
9729;SDS011;4904;49.152;11.004;2024-01-11T01:38:12;24.13;;;15.13;;
9729;SDS011;4904;49.152;11.004;2024-01-11T01:40:39;23.23;;;14.63;;
9729;SDS011;4904;49.152;11.004;2024-01-11T01:43:06;24.83;;;15.23;;
9729;SDS011;4904;49.152;11.004;2024-01-11T01:45:34;24.07;;;15.10;;
9729;SDS011;4904;49.152;11.004;2024-01-11T01:48:01;25.33;;;15.50;;
9729;SDS011;4904;49.152;11.004;2024-01-11T01:50:30;24.30;;;14.97;;
9729;SDS011;4904;49.152;11.004;2024-01-11T01:52:58;27.43;;;15.37;;
9729;SDS011;4904;49.152;11.004;2024-01-11T01:55:25;26.03;;;15.33;;
9729;SDS011;4904;49.152;11.004;2024-01-11T01:57:53;24.70;;;15.73;;
9729;SDS011;4904;49.152;11.004;2024-01-11T02:00:21;24.33;;;15.40;;
9729;SDS011;4904;49.152;11.004;2024-01-11T02:02:50;27.10;;;16.83;;
9729;SDS011;4904;49.152;11.004;2024-01-11T02:05:17;24.93;;;16.63;;
9729;SDS011;4904;49.152;11.004;2024-01-11T02:07:46;30.27;;;17.80;;
9729;SDS011;4904;49.152;11.004;2024-01-11T02:10:13;27.20;;;17.73;;
9729;SDS011;4904;49.152;11.004;2024-01-11T02:12:40;30.47;;;17.80;;
9729;SDS011;4904;49.152;11.004;2024-01-11T02:15:07;24.73;;;15.77;;
9729;SDS011;4904;49.152;11.004;2024-01-11T02:17:35;23.40;;;14.47;;
9729;SDS011;4904;49.152;11.004;2024-01-11T02:20:02;24.30;;;14.80;;
9729;SDS011;4904;49.152;11.004;2024-01-11T02:22:31;24.83;;;14.60;;
9729;SDS011;4904;49.152;11.004;2024-01-11T02:25:02;22.40;;;14.43;;
9729;SDS011;4904;49.152;11.004;2024-01-11T02:27:29;20.17;;;13.33;;
9729;SDS011;4904;49.152;11.004;2024-01-11T02:29:56;20.97;;;13.70;;
9729;SDS011;4904;49.152;11.004;2024-01-11T02:32:23;22.47;;;13.57;;
9729;SDS011;4904;49.152;11.004;2024-01-11T02:34:50;20.40;;;13.13;;
9729;SDS011;4904;49.152;11.004;2024-01-11T02:37:17;22.20;;;13.90;;
9729;SDS011;4904;49.152;11.004;2024-01-11T02:39:44;23.33;;;14.27;;
9729;SDS011;4904;49.152;11.004;2024-01-11T02:42:12;25.20;;;14.27;;
9729;SDS011;4904;49.152;11.004;2024-01-11T02:44:40;21.53;;;14.00;;
9729;SDS011;4904;49.152;11.004;2024-01-11T02:47:07;28.27;;;15.77;;
9729;SDS011;4904;49.152;11.004;2024-01-11T02:49:34;22.57;;;14.53;;
9729;SDS011;4904;49.152;11.004;2024-01-11T02:52:01;24.23;;;14.70;;
9729;SDS011;4904;49.152;11.004;2024-01-11T02:54:28;25.13;;;16.17;;
9729;SDS011;4904;49.152;11.004;2024-01-11T02:56:55;24.57;;;14.77;;
9729;SDS011;4904;49.152;11.004;2024-01-11T02:59:23;23.80;;;14.23;;
9729;SDS011;4904;49.152;11.004;2024-01-11T03:01:50;23.97;;;15.57;;
9729;SDS011;4904;49.152;11.004;2024-01-11T03:04:17;23.57;;;14.97;;
9729;SDS011;4904;49.152;11.004;2024-01-11T03:06:44;25.33;;;15.43;;
9729;SDS011;4904;49.152;11.004;2024-01-11T03:09:11;27.60;;;16.77;;
9729;SDS011;4904;49.152;11.004;2024-01-11T03:11:38;24.93;;;15.57;;
9729;SDS011;4904;49.152;11.004;2024-01-11T03:14:08;26.07;;;16.97;;
9729;SDS011;4904;49.152;11.004;2024-01-11T03:16:36;24.83;;;15.27;;
9729;SDS011;4904;49.152;11.004;2024-01-11T03:19:05;28.13;;;16.20;;
9729;SDS011;4904;49.152;11.004;2024-01-11T03:21:32;24.87;;;14.47;;
9729;SDS011;4904;49.152;11.004;2024-01-11T03:23:59;23.17;;;14.47;;
9729;SDS011;4904;49.152;11.004;2024-01-11T03:26:25;25.07;;;15.30;;
9729;SDS011;4904;49.152;11.004;2024-01-11T03:28:52;23.17;;;15.00;;
9729;SDS011;4904;49.152;11.004;2024-01-11T03:31:19;24.87;;;14.53;;
9729;SDS011;4904;49.152;11.004;2024-01-11T03:33:47;25.13;;;14.87;;
9729;SDS011;4904;49.152;11.004;2024-01-11T03:36:14;22.43;;;14.37;;
9729;SDS011;4904;49.152;11.004;2024-01-11T03:38:41;21.93;;;14.60;;
9729;SDS011;4904;49.152;11.004;2024-01-11T03:41:08;24.73;;;15.10;;
9729;SDS011;4904;49.152;11.004;2024-01-11T03:43:35;23.60;;;14.97;;
9729;SDS011;4904;49.152;11.004;2024-01-11T03:46:02;22.67;;;14.03;;
9729;SDS011;4904;49.152;11.004;2024-01-11T03:48:29;22.93;;;14.17;;
9729;SDS011;4904;49.152;11.004;2024-01-11T03:50:58;20.50;;;13.67;;
9729;SDS011;4904;49.152;11.004;2024-01-11T03:53:25;23.33;;;14.10;;
9729;SDS011;4904;49.152;11.004;2024-01-11T03:55:51;25.67;;;14.80;;
9729;SDS011;4904;49.152;11.004;2024-01-11T03:58:18;24.30;;;15.13;;
9729;SDS011;4904;49.152;11.004;2024-01-11T04:00:45;25.17;;;15.57;;
9729;SDS011;4904;49.152;11.004;2024-01-11T04:03:12;22.30;;;14.30;;
9729;SDS011;4904;49.152;11.004;2024-01-11T04:05:39;25.53;;;14.97;;
9729;SDS011;4904;49.152;11.004;2024-01-11T04:08:07;24.23;;;14.47;;
9729;SDS011;4904;49.152;11.004;2024-01-11T04:10:34;22.17;;;13.53;;
9729;SDS011;4904;49.152;11.004;2024-01-11T04:13:01;22.30;;;14.73;;
9729;SDS011;4904;49.152;11.004;2024-01-11T04:15:28;23.20;;;14.17;;
9729;SDS011;4904;49.152;11.004;2024-01-11T04:17:55;24.00;;;13.87;;
9729;SDS011;4904;49.152;11.004;2024-01-11T04:20:22;21.83;;;14.10;;
9729;SDS011;4904;49.152;11.004;2024-01-11T04:22:49;24.23;;;14.37;;
9729;SDS011;4904;49.152;11.004;2024-01-11T04:25:17;22.77;;;14.03;;
9729;SDS011;4904;49.152;11.004;2024-01-11T04:27:45;21.40;;;13.63;;
9729;SDS011;4904;49.152;11.004;2024-01-11T04:30:12;24.07;;;14.13;;
9729;SDS011;4904;49.152;11.004;2024-01-11T04:32:39;21.33;;;14.10;;
9729;SDS011;4904;49.152;11.004;2024-01-11T04:35:06;21.70;;;12.67;;
9729;SDS011;4904;49.152;11.004;2024-01-11T04:37:33;20.97;;;13.30;;
9729;SDS011;4904;49.152;11.004;2024-01-11T04:40:01;23.30;;;14.13;;
9729;SDS011;4904;49.152;11.004;2024-01-11T04:42:30;24.20;;;13.73;;
9729;SDS011;4904;49.152;11.004;2024-01-11T04:44:56;23.00;;;14.70;;
9729;SDS011;4904;49.152;11.004;2024-01-11T04:47:23;24.30;;;14.23;;
9729;SDS011;4904;49.152;11.004;2024-01-11T04:49:50;21.43;;;13.97;;
9729;SDS011;4904;49.152;11.004;2024-01-11T04:52:17;21.03;;;13.10;;
9729;SDS011;4904;49.152;11.004;2024-01-11T04:54:44;22.77;;;14.40;;
9729;SDS011;4904;49.152;11.004;2024-01-11T04:57:11;23.17;;;13.87;;
9729;SDS011;4904;49.152;11.004;2024-01-11T04:59:39;22.13;;;13.63;;
9729;SDS011;4904;49.152;11.004;2024-01-11T05:02:06;23.97;;;14.43;;
9729;SDS011;4904;49.152;11.004;2024-01-11T05:04:33;22.37;;;14.50;;
9729;SDS011;4904;49.152;11.004;2024-01-11T05:07:00;25.20;;;14.33;;
9729;SDS011;4904;49.152;11.004;2024-01-11T05:09:27;23.53;;;14.60;;
9729;SDS011;4904;49.152;11.004;2024-01-11T05:11:54;23.47;;;14.23;;
9729;SDS011;4904;49.152;11.004;2024-01-11T05:14:21;22.80;;;13.93;;
9729;SDS011;4904;49.152;11.004;2024-01-11T05:16:49;23.43;;;14.93;;
9729;SDS011;4904;49.152;11.004;2024-01-11T05:19:16;26.27;;;14.03;;
9729;SDS011;4904;49.152;11.004;2024-01-11T05:21:43;22.87;;;14.13;;
9729;SDS011;4904;49.152;11.004;2024-01-11T05:24:10;25.27;;;14.13;;
9729;SDS011;4904;49.152;11.004;2024-01-11T05:26:37;24.77;;;14.97;;
9729;SDS011;4904;49.152;11.004;2024-01-11T05:29:04;23.10;;;14.37;;
9729;SDS011;4904;49.152;11.004;2024-01-11T05:31:30;26.83;;;15.57;;
9729;SDS011;4904;49.152;11.004;2024-01-11T05:33:59;27.43;;;15.83;;
9729;SDS011;4904;49.152;11.004;2024-01-11T05:36:26;25.33;;;15.27;;
9729;SDS011;4904;49.152;11.004;2024-01-11T05:38:53;27.57;;;15.93;;
9729;SDS011;4904;49.152;11.004;2024-01-11T05:41:20;23.50;;;14.67;;
9729;SDS011;4904;49.152;11.004;2024-01-11T05:43:46;25.17;;;15.30;;
9729;SDS011;4904;49.152;11.004;2024-01-11T05:46:13;24.00;;;14.93;;
9729;SDS011;4904;49.152;11.004;2024-01-11T05:48:40;23.33;;;14.90;;
9729;SDS011;4904;49.152;11.004;2024-01-11T05:51:09;23.57;;;14.33;;
9729;SDS011;4904;49.152;11.004;2024-01-11T05:53:36;21.73;;;14.67;;
9729;SDS011;4904;49.152;11.004;2024-01-11T05:56:06;24.63;;;14.07;;
9729;SDS011;4904;49.152;11.004;2024-01-11T05:58:34;22.47;;;13.57;;
9729;SDS011;4904;49.152;11.004;2024-01-11T06:01:03;23.83;;;14.53;;
9729;SDS011;4904;49.152;11.004;2024-01-11T06:03:29;22.37;;;14.03;;
9729;SDS011;4904;49.152;11.004;2024-01-11T06:05:59;25.37;;;14.53;;
9729;SDS011;4904;49.152;11.004;2024-01-11T06:08:28;22.90;;;14.20;;
9729;SDS011;4904;49.152;11.004;2024-01-11T06:10:55;26.80;;;15.00;;
9729;SDS011;4904;49.152;11.004;2024-01-11T06:13:22;24.97;;;14.97;;
9729;SDS011;4904;49.152;11.004;2024-01-11T06:15:49;24.43;;;15.70;;
9729;SDS011;4904;49.152;11.004;2024-01-11T06:18:16;26.33;;;16.20;;
9729;SDS011;4904;49.152;11.004;2024-01-11T06:20:43;26.67;;;14.73;;
9729;SDS011;4904;49.152;11.004;2024-01-11T06:23:10;25.03;;;14.90;;
9729;SDS011;4904;49.152;11.004;2024-01-11T06:25:38;23.20;;;14.43;;
9729;SDS011;4904;49.152;11.004;2024-01-11T06:28:06;27.03;;;15.07;;
9729;SDS011;4904;49.152;11.004;2024-01-11T06:30:34;29.57;;;15.67;;
9729;SDS011;4904;49.152;11.004;2024-01-11T06:33:02;26.23;;;15.60;;
9729;SDS011;4904;49.152;11.004;2024-01-11T06:35:29;27.50;;;16.70;;
9729;SDS011;4904;49.152;11.004;2024-01-11T06:37:56;29.90;;;18.00;;
9729;SDS011;4904;49.152;11.004;2024-01-11T06:40:23;33.10;;;19.67;;
9729;SDS011;4904;49.152;11.004;2024-01-11T06:42:51;30.70;;;18.40;;
9729;SDS011;4904;49.152;11.004;2024-01-11T06:45:17;31.07;;;17.27;;
9729;SDS011;4904;49.152;11.004;2024-01-11T06:47:45;30.03;;;17.33;;
9729;SDS011;4904;49.152;11.004;2024-01-11T06:50:12;24.47;;;15.37;;
9729;SDS011;4904;49.152;11.004;2024-01-11T06:52:39;28.03;;;16.77;;
9729;SDS011;4904;49.152;11.004;2024-01-11T06:55:07;24.33;;;15.77;;
9729;SDS011;4904;49.152;11.004;2024-01-11T06:57:36;28.40;;;17.23;;
9729;SDS011;4904;49.152;11.004;2024-01-11T07:00:05;37.60;;;18.73;;
9729;SDS011;4904;49.152;11.004;2024-01-11T07:02:33;29.70;;;18.07;;
9729;SDS011;4904;49.152;11.004;2024-01-11T07:05:01;29.80;;;17.63;;
9729;SDS011;4904;49.152;11.004;2024-01-11T07:07:28;30.93;;;17.97;;
9729;SDS011;4904;49.152;11.004;2024-01-11T07:09:55;31.83;;;17.43;;
9729;SDS011;4904;49.152;11.004;2024-01-11T07:12:21;30.50;;;16.67;;
9729;SDS011;4904;49.152;11.004;2024-01-11T07:14:48;25.33;;;15.83;;
9729;SDS011;4904;49.152;11.004;2024-01-11T07:17:17;27.97;;;15.90;;
9729;SDS011;4904;49.152;11.004;2024-01-11T07:19:43;25.83;;;16.00;;
9729;SDS011;4904;49.152;11.004;2024-01-11T07:22:10;23.33;;;15.20;;
9729;SDS011;4904;49.152;11.004;2024-01-11T07:24:37;24.03;;;15.77;;
9729;SDS011;4904;49.152;11.004;2024-01-11T07:27:04;27.80;;;16.83;;
9729;SDS011;4904;49.152;11.004;2024-01-11T07:29:31;28.57;;;18.40;;
9729;SDS011;4904;49.152;11.004;2024-01-11T07:31:59;35.80;;;20.43;;
9729;SDS011;4904;49.152;11.004;2024-01-11T07:34:30;41.00;;;24.43;;
9729;SDS011;4904;49.152;11.004;2024-01-11T07:36:57;39.03;;;23.93;;
9729;SDS011;4904;49.152;11.004;2024-01-11T07:39:24;36.93;;;21.53;;
9729;SDS011;4904;49.152;11.004;2024-01-11T07:41:51;33.53;;;19.63;;
9729;SDS011;4904;49.152;11.004;2024-01-11T07:44:18;30.77;;;18.57;;
9729;SDS011;4904;49.152;11.004;2024-01-11T07:46:45;24.97;;;16.30;;
9729;SDS011;4904;49.152;11.004;2024-01-11T07:49:12;45.23;;;24.37;;
9729;SDS011;4904;49.152;11.004;2024-01-11T07:51:40;52.87;;;27.07;;
9729;SDS011;4904;49.152;11.004;2024-01-11T07:54:07;31.73;;;19.10;;
9729;SDS011;4904;49.152;11.004;2024-01-11T07:56:34;34.53;;;19.73;;
9729;SDS011;4904;49.152;11.004;2024-01-11T07:59:01;34.43;;;19.13;;
9729;SDS011;4904;49.152;11.004;2024-01-11T08:01:28;34.77;;;19.77;;
9729;SDS011;4904;49.152;11.004;2024-01-11T08:03:55;28.30;;;17.97;;
9729;SDS011;4904;49.152;11.004;2024-01-11T08:06:21;30.37;;;17.73;;
9729;SDS011;4904;49.152;11.004;2024-01-11T08:08:50;31.10;;;18.57;;
9729;SDS011;4904;49.152;11.004;2024-01-11T08:11:17;31.40;;;18.53;;
9729;SDS011;4904;49.152;11.004;2024-01-11T08:13:45;28.10;;;17.60;;
9729;SDS011;4904;49.152;11.004;2024-01-11T08:16:14;32.40;;;17.40;;
9729;SDS011;4904;49.152;11.004;2024-01-11T08:18:42;28.30;;;17.03;;
9729;SDS011;4904;49.152;11.004;2024-01-11T08:21:10;34.00;;;18.93;;
9729;SDS011;4904;49.152;11.004;2024-01-11T08:23:39;29.97;;;18.63;;
9729;SDS011;4904;49.152;11.004;2024-01-11T08:26:12;31.43;;;18.67;;
9729;SDS011;4904;49.152;11.004;2024-01-11T08:28:40;32.00;;;19.70;;
9729;SDS011;4904;49.152;11.004;2024-01-11T08:31:07;30.37;;;20.03;;
9729;SDS011;4904;49.152;11.004;2024-01-11T08:33:34;34.60;;;20.30;;
9729;SDS011;4904;49.152;11.004;2024-01-11T08:36:01;30.47;;;17.27;;
9729;SDS011;4904;49.152;11.004;2024-01-11T08:38:29;32.83;;;19.10;;
9729;SDS011;4904;49.152;11.004;2024-01-11T08:40:56;40.23;;;19.83;;
9729;SDS011;4904;49.152;11.004;2024-01-11T08:43:26;32.27;;;18.40;;
9729;SDS011;4904;49.152;11.004;2024-01-11T08:45:53;32.57;;;20.43;;
9729;SDS011;4904;49.152;11.004;2024-01-11T08:48:20;37.07;;;19.03;;
9729;SDS011;4904;49.152;11.004;2024-01-11T08:50:47;31.47;;;19.53;;
9729;SDS011;4904;49.152;11.004;2024-01-11T08:53:14;36.63;;;19.70;;
9729;SDS011;4904;49.152;11.004;2024-01-11T08:55:42;30.53;;;18.70;;
9729;SDS011;4904;49.152;11.004;2024-01-11T08:58:09;35.23;;;19.80;;
9729;SDS011;4904;49.152;11.004;2024-01-11T09:00:38;30.20;;;18.13;;
9729;SDS011;4904;49.152;11.004;2024-01-11T09:03:05;34.17;;;20.47;;
9729;SDS011;4904;49.152;11.004;2024-01-11T09:05:32;34.33;;;19.57;;
9729;SDS011;4904;49.152;11.004;2024-01-11T09:07:59;32.20;;;19.10;;
9729;SDS011;4904;49.152;11.004;2024-01-11T09:10:26;33.37;;;19.77;;
9729;SDS011;4904;49.152;11.004;2024-01-11T09:12:53;35.93;;;19.87;;
9729;SDS011;4904;49.152;11.004;2024-01-11T09:15:20;31.37;;;19.87;;
9729;SDS011;4904;49.152;11.004;2024-01-11T09:17:49;33.90;;;20.13;;
9729;SDS011;4904;49.152;11.004;2024-01-11T09:20:16;32.90;;;18.87;;
9729;SDS011;4904;49.152;11.004;2024-01-11T09:22:43;33.43;;;20.43;;
9729;SDS011;4904;49.152;11.004;2024-01-11T09:25:11;50.67;;;26.43;;
9729;SDS011;4904;49.152;11.004;2024-01-11T09:27:38;40.63;;;24.20;;
9729;SDS011;4904;49.152;11.004;2024-01-11T09:30:06;35.20;;;20.83;;
9729;SDS011;4904;49.152;11.004;2024-01-11T09:32:33;35.70;;;20.57;;
9729;SDS011;4904;49.152;11.004;2024-01-11T09:35:02;35.47;;;19.83;;
9729;SDS011;4904;49.152;11.004;2024-01-11T09:37:29;32.73;;;20.40;;
9729;SDS011;4904;49.152;11.004;2024-01-11T09:39:57;33.47;;;19.63;;
9729;SDS011;4904;49.152;11.004;2024-01-11T09:42:25;39.00;;;20.80;;
9729;SDS011;4904;49.152;11.004;2024-01-11T09:44:53;35.07;;;20.43;;
9729;SDS011;4904;49.152;11.004;2024-01-11T09:47:20;32.53;;;19.77;;
9729;SDS011;4904;49.152;11.004;2024-01-11T09:49:48;39.17;;;20.37;;
9729;SDS011;4904;49.152;11.004;2024-01-11T09:52:18;33.83;;;20.57;;
9729;SDS011;4904;49.152;11.004;2024-01-11T09:54:47;33.53;;;20.03;;
9729;SDS011;4904;49.152;11.004;2024-01-11T09:57:14;29.27;;;19.00;;
9729;SDS011;4904;49.152;11.004;2024-01-11T09:59:50;34.97;;;21.03;;
9729;SDS011;4904;49.152;11.004;2024-01-11T10:02:19;41.53;;;23.33;;
9729;SDS011;4904;49.152;11.004;2024-01-11T10:04:46;39.00;;;22.57;;
9729;SDS011;4904;49.152;11.004;2024-01-11T10:07:13;29.60;;;19.50;;
9729;SDS011;4904;49.152;11.004;2024-01-11T10:09:45;33.57;;;20.87;;
9729;SDS011;4904;49.152;11.004;2024-01-11T10:12:12;32.47;;;20.37;;
9729;SDS011;4904;49.152;11.004;2024-01-11T10:14:38;33.73;;;21.07;;
9729;SDS011;4904;49.152;11.004;2024-01-11T10:17:06;32.87;;;20.67;;
9729;SDS011;4904;49.152;11.004;2024-01-11T10:19:33;33.90;;;21.57;;
9729;SDS011;4904;49.152;11.004;2024-01-11T10:22:00;33.40;;;21.70;;
9729;SDS011;4904;49.152;11.004;2024-01-11T10:24:27;34.27;;;21.17;;
9729;SDS011;4904;49.152;11.004;2024-01-11T10:26:56;37.73;;;21.60;;
9729;SDS011;4904;49.152;11.004;2024-01-11T10:29:27;34.20;;;22.77;;
9729;SDS011;4904;49.152;11.004;2024-01-11T10:31:56;35.03;;;21.80;;
9729;SDS011;4904;49.152;11.004;2024-01-11T10:34:23;33.37;;;21.77;;
9729;SDS011;4904;49.152;11.004;2024-01-11T10:36:50;31.90;;;20.50;;
9729;SDS011;4904;49.152;11.004;2024-01-11T10:39:17;35.07;;;20.93;;
9729;SDS011;4904;49.152;11.004;2024-01-11T10:41:50;31.20;;;20.33;;
9729;SDS011;4904;49.152;11.004;2024-01-11T10:44:19;29.80;;;19.27;;
9729;SDS011;4904;49.152;11.004;2024-01-11T10:46:47;32.60;;;20.07;;
9729;SDS011;4904;49.152;11.004;2024-01-11T10:49:16;33.27;;;20.27;;
9729;SDS011;4904;49.152;11.004;2024-01-11T10:51:45;28.50;;;19.57;;
9729;SDS011;4904;49.152;11.004;2024-01-11T10:54:19;33.00;;;19.93;;
9729;SDS011;4904;49.152;11.004;2024-01-11T10:56:48;36.80;;;20.60;;
9729;SDS011;4904;49.152;11.004;2024-01-11T10:59:16;34.77;;;21.23;;
9729;SDS011;4904;49.152;11.004;2024-01-11T11:01:49;32.97;;;21.27;;
9729;SDS011;4904;49.152;11.004;2024-01-11T11:04:17;32.47;;;20.97;;
9729;SDS011;4904;49.152;11.004;2024-01-11T11:06:47;33.83;;;21.30;;
9729;SDS011;4904;49.152;11.004;2024-01-11T11:09:15;34.70;;;21.60;;
9729;SDS011;4904;49.152;11.004;2024-01-11T11:11:44;37.53;;;22.17;;
9729;SDS011;4904;49.152;11.004;2024-01-11T11:14:13;34.87;;;21.37;;
9729;SDS011;4904;49.152;11.004;2024-01-11T11:16:44;31.83;;;21.00;;
9729;SDS011;4904;49.152;11.004;2024-01-11T11:19:11;33.00;;;21.40;;
9729;SDS011;4904;49.152;11.004;2024-01-11T11:21:41;34.37;;;21.07;;
9729;SDS011;4904;49.152;11.004;2024-01-11T11:24:09;34.40;;;21.63;;
9729;SDS011;4904;49.152;11.004;2024-01-11T11:26:37;32.67;;;20.60;;
9729;SDS011;4904;49.152;11.004;2024-01-11T11:29:05;35.80;;;21.50;;
9729;SDS011;4904;49.152;11.004;2024-01-11T11:31:35;34.33;;;20.97;;
9729;SDS011;4904;49.152;11.004;2024-01-11T11:34:05;34.10;;;21.77;;
9729;SDS011;4904;49.152;11.004;2024-01-11T11:36:32;31.33;;;20.60;;
9729;SDS011;4904;49.152;11.004;2024-01-11T11:39:00;32.43;;;20.17;;
9729;SDS011;4904;49.152;11.004;2024-01-11T11:41:30;31.23;;;20.43;;
9729;SDS011;4904;49.152;11.004;2024-01-11T11:44:00;34.07;;;22.13;;
9729;SDS011;4904;49.152;11.004;2024-01-11T11:46:28;38.87;;;24.53;;
9729;SDS011;4904;49.152;11.004;2024-01-11T11:48:56;28.87;;;20.03;;
9729;SDS011;4904;49.152;11.004;2024-01-11T11:51:26;30.73;;;20.07;;
9729;SDS011;4904;49.152;11.004;2024-01-11T11:53:53;31.43;;;19.73;;
9729;SDS011;4904;49.152;11.004;2024-01-11T11:56:21;30.87;;;20.33;;
9729;SDS011;4904;49.152;11.004;2024-01-11T11:58:48;30.07;;;19.63;;
9729;SDS011;4904;49.152;11.004;2024-01-11T12:01:17;32.17;;;21.40;;
9729;SDS011;4904;49.152;11.004;2024-01-11T12:03:45;31.57;;;20.80;;
9729;SDS011;4904;49.152;11.004;2024-01-11T12:06:15;29.70;;;19.93;;
9729;SDS011;4904;49.152;11.004;2024-01-11T12:08:45;27.67;;;20.03;;
9729;SDS011;4904;49.152;11.004;2024-01-11T12:11:13;35.93;;;21.30;;
9729;SDS011;4904;49.152;11.004;2024-01-11T12:13:41;30.17;;;19.67;;
9729;SDS011;4904;49.152;11.004;2024-01-11T12:16:09;35.93;;;23.97;;
9729;SDS011;4904;49.152;11.004;2024-01-11T12:18:37;33.00;;;21.57;;
9729;SDS011;4904;49.152;11.004;2024-01-11T12:21:04;26.63;;;18.63;;
9729;SDS011;4904;49.152;11.004;2024-01-11T12:23:32;30.57;;;20.97;;
9729;SDS011;4904;49.152;11.004;2024-01-11T12:26:02;28.33;;;19.63;;
9729;SDS011;4904;49.152;11.004;2024-01-11T12:28:32;28.20;;;19.80;;
9729;SDS011;4904;49.152;11.004;2024-01-11T12:31:00;26.27;;;18.90;;
9729;SDS011;4904;49.152;11.004;2024-01-11T12:33:27;27.27;;;19.57;;
9729;SDS011;4904;49.152;11.004;2024-01-11T12:35:54;30.80;;;20.00;;
9729;SDS011;4904;49.152;11.004;2024-01-11T12:38:23;29.00;;;19.03;;
9729;SDS011;4904;49.152;11.004;2024-01-11T12:40:50;27.45;;;18.70;;
9729;SDS011;4904;49.152;11.004;2024-01-11T12:43:19;24.98;;;17.83;;
9729;SDS011;4904;49.152;11.004;2024-01-11T12:45:46;29.40;;;19.77;;
9729;SDS011;4904;49.152;11.004;2024-01-11T12:48:13;29.70;;;19.70;;
9729;SDS011;4904;49.152;11.004;2024-01-11T12:50:43;30.40;;;20.00;;
9729;SDS011;4904;49.152;11.004;2024-01-11T12:53:11;28.37;;;19.73;;
9729;SDS011;4904;49.152;11.004;2024-01-11T12:55:43;30.00;;;20.10;;
9729;SDS011;4904;49.152;11.004;2024-01-11T12:58:10;30.37;;;21.10;;
9729;SDS011;4904;49.152;11.004;2024-01-11T13:00:39;29.97;;;20.20;;
9729;SDS011;4904;49.152;11.004;2024-01-11T13:03:06;30.77;;;21.20;;
9729;SDS011;4904;49.152;11.004;2024-01-11T13:05:35;30.35;;;20.08;;
9729;SDS011;4904;49.152;11.004;2024-01-11T13:08:03;30.37;;;20.07;;
9729;SDS011;4904;49.152;11.004;2024-01-11T13:10:36;31.77;;;21.23;;
9729;SDS011;4904;49.152;11.004;2024-01-11T13:13:04;32.75;;;21.42;;
9729;SDS011;4904;49.152;11.004;2024-01-11T13:15:33;36.63;;;24.42;;
9729;SDS011;4904;49.152;11.004;2024-01-11T13:18:02;32.33;;;22.27;;
9729;SDS011;4904;49.152;11.004;2024-01-11T13:20:30;33.65;;;22.77;;
9729;SDS011;4904;49.152;11.004;2024-01-11T13:25:45;30.00;;;21.23;;
9729;SDS011;4904;49.152;11.004;2024-01-11T13:28:13;36.00;;;21.20;;
9729;SDS011;4904;49.152;11.004;2024-01-11T13:30:41;30.70;;;21.02;;
9729;SDS011;4904;49.152;11.004;2024-01-11T13:33:11;30.67;;;20.73;;
9729;SDS011;4904;49.152;11.004;2024-01-11T13:35:40;27.23;;;19.95;;
9729;SDS011;4904;49.152;11.004;2024-01-11T13:38:08;30.13;;;20.65;;
9729;SDS011;4904;49.152;11.004;2024-01-11T13:40:35;29.08;;;20.13;;
9729;SDS011;4904;49.152;11.004;2024-01-11T13:43:03;27.63;;;20.10;;
9729;SDS011;4904;49.152;11.004;2024-01-11T13:45:30;31.08;;;20.17;;
9729;SDS011;4904;49.152;11.004;2024-01-11T13:47:58;28.85;;;20.73;;
9729;SDS011;4904;49.152;11.004;2024-01-11T13:50:27;28.77;;;21.38;;
9729;SDS011;4904;49.152;11.004;2024-01-11T13:52:54;29.10;;;21.38;;
9729;SDS011;4904;49.152;11.004;2024-01-11T13:55:21;32.58;;;23.92;;
9729;SDS011;4904;49.152;11.004;2024-01-11T13:57:48;31.35;;;21.83;;
9729;SDS011;4904;49.152;11.004;2024-01-11T14:00:15;26.15;;;19.80;;
9729;SDS011;4904;49.152;11.004;2024-01-11T14:02:43;29.65;;;20.88;;
9729;SDS011;4904;49.152;11.004;2024-01-11T14:05:10;26.67;;;19.33;;
9729;SDS011;4904;49.152;11.004;2024-01-11T14:07:41;29.88;;;20.27;;
9729;SDS011;4904;49.152;11.004;2024-01-11T14:10:10;33.00;;;22.55;;
9729;SDS011;4904;49.152;11.004;2024-01-11T14:12:37;33.70;;;23.27;;
9729;SDS011;4904;49.152;11.004;2024-01-11T14:15:05;27.48;;;21.48;;
9729;SDS011;4904;49.152;11.004;2024-01-11T14:17:36;26.40;;;18.80;;
9729;SDS011;4904;49.152;11.004;2024-01-11T14:20:03;25.92;;;19.20;;
9729;SDS011;4904;49.152;11.004;2024-01-11T14:22:34;26.65;;;18.40;;
9729;SDS011;4904;49.152;11.004;2024-01-11T14:25:03;26.85;;;19.60;;
9729;SDS011;4904;49.152;11.004;2024-01-11T14:27:31;26.75;;;18.90;;
9729;SDS011;4904;49.152;11.004;2024-01-11T14:29:57;24.90;;;17.73;;
9729;SDS011;4904;49.152;11.004;2024-01-11T14:32:24;25.30;;;18.50;;
9729;SDS011;4904;49.152;11.004;2024-01-11T14:34:52;27.45;;;18.75;;
9729;SDS011;4904;49.152;11.004;2024-01-11T14:37:19;27.85;;;19.02;;